Time;durP1;ratioP1;P1;durP2;ratioP2;P2;SDS_P1;SDS_P2;PMS_P1;PMS_P2;Temp;Humidity;BMP_temperature;BMP_pressure;BME280_temperature;BME280_humidity;BME280_pressure;Samples;Min_cycle;Max_cycle;Signal;HPM_P1;HPM_P2
2024/04/15 00:02:22;;;;;;;7.03;4.30;;;;;;;;;;771802;180;918186;-67
2024/04/15 00:04:48;;;;;;;7.07;4.77;;;;;;;;;;772687;178;713635;-69
2024/04/15 00:07:14;;;;;;;9.77;4.63;;;;;;;;;;779750;178;848997;-68
2024/04/15 00:09:40;;;;;;;7.67;4.30;;;;;;;;;;772092;177;848221;-68
2024/04/15 00:12:05;;;;;;;6.10;4.43;;;;;;;;;;771914;180;918438;-68
2024/04/15 00:14:31;;;;;;;6.43;4.03;;;;;;;;;;772487;177;908551;-71
2024/04/15 00:16:57;;;;;;;36.37;5.97;;;;;;;;;;772391;178;710979;-72
2024/04/15 00:19:26;;;;;;;9.47;4.43;;;;;;;;;;769511;180;816454;-71
2024/04/15 00:21:49;;;;;;;12.68;6.32;;;;;;;;;;771690;177;919530;-71
2024/04/15 00:24:15;;;;;;;10.57;6.73;;;;;;;;;;775816;181;918363;-72
2024/04/15 00:26:40;;;;;;;9.73;5.70;;;;;;;;;;774317;180;849169;-71
2024/04/15 00:29:06;;;;;;;9.45;5.72;;;;;;;;;;773297;177;813657;-72
2024/04/15 00:31:32;;;;;;;9.93;6.43;;;;;;;;;;775989;180;713759;-72
2024/04/15 00:33:58;;;;;;;15.03;6.77;;;;;;;;;;775351;178;918275;-71
2024/04/15 00:36:24;;;;;;;10.07;5.93;;;;;;;;;;770967;180;935661;-71
2024/04/15 00:38:50;;;;;;;9.53;5.77;;;;;;;;;;776626;179;917912;-71
2024/04/15 00:41:15;;;;;;;8.17;5.33;;;;;;;;;;771624;177;892572;-72
2024/04/15 00:43:41;;;;;;;14.00;7.00;;;;;;;;;;775884;177;765479;-71
2024/04/15 00:46:07;;;;;;;13.07;6.67;;;;;;;;;;773574;178;917607;-71
2024/04/15 00:48:33;;;;;;;15.30;7.17;;;;;;;;;;775407;177;849338;-72
2024/04/15 00:50:59;;;;;;;9.87;5.80;;;;;;;;;;773462;177;920545;-71
2024/04/15 00:53:25;;;;;;;11.13;6.30;;;;;;;;;;770748;178;943390;-72
2024/04/15 00:55:50;;;;;;;10.02;6.55;;;;;;;;;;778739;179;816134;-72
2024/04/15 00:58:16;;;;;;;9.60;6.80;;;;;;;;;;772936;177;770728;-72
2024/04/15 01:00:42;;;;;;;9.60;7.40;;;;;;;;;;773596;178;918575;-72
2024/04/15 01:03:08;;;;;;;11.43;6.00;;;;;;;;;;777811;180;909054;-72
2024/04/15 01:05:34;;;;;;;8.20;5.93;;;;;;;;;;774383;180;815287;-71
2024/04/15 01:08:00;;;;;;;12.63;6.20;;;;;;;;;;775310;177;713291;-71
2024/04/15 01:10:25;;;;;;;8.35;6.80;;;;;;;;;;772531;180;915218;-72
2024/04/15 01:12:51;;;;;;;10.07;6.80;;;;;;;;;;768660;178;917746;-72
2024/04/15 01:15:17;;;;;;;10.23;6.90;;;;;;;;;;772375;180;920487;-71
2024/04/15 01:17:43;;;;;;;7.43;6.00;;;;;;;;;;775871;180;819998;-70
2024/04/15 01:20:09;;;;;;;10.17;5.93;;;;;;;;;;776651;177;629823;-69
2024/04/15 01:22:37;;;;;;;10.30;6.80;;;;;;;;;;772175;181;852626;-68
2024/04/15 01:25:03;;;;;;;9.13;5.90;;;;;;;;;;772323;177;915736;-67
2024/04/15 01:27:29;;;;;;;9.07;6.67;;;;;;;;;;777721;177;813508;-71
2024/04/15 01:29:55;;;;;;;10.87;7.07;;;;;;;;;;775072;180;918433;-71
2024/04/15 01:32:21;;;;;;;10.43;6.13;;;;;;;;;;776185;177;712466;-72
2024/04/15 01:34:46;;;;;;;9.40;6.27;;;;;;;;;;781018;178;615647;-72
2024/04/15 01:37:12;;;;;;;8.70;6.30;;;;;;;;;;773527;180;816500;-72
2024/04/15 01:39:38;;;;;;;11.68;6.43;;;;;;;;;;770664;180;918130;-72
2024/04/15 01:42:04;;;;;;;8.10;6.00;;;;;;;;;;778591;178;792841;-72
2024/04/15 01:44:31;;;;;;;10.10;5.87;;;;;;;;;;773271;178;844446;-71
2024/04/15 01:46:56;;;;;;;10.73;7.10;;;;;;;;;;772903;178;815803;-72
2024/04/15 01:49:21;;;;;;;11.10;5.33;;;;;;;;;;775172;180;816097;-72
2024/04/15 01:51:48;;;;;;;14.30;5.60;;;;;;;;;;778557;178;815239;-72
2024/04/15 01:54:14;;;;;;;9.53;5.60;;;;;;;;;;770262;180;1638168;-72
2024/04/15 01:56:40;;;;;;;8.50;5.23;;;;;;;;;;773282;180;715256;-72
2024/04/15 01:59:05;;;;;;;6.77;4.83;;;;;;;;;;777589;180;815545;-72
2024/04/15 02:01:31;;;;;;;14.13;6.05;;;;;;;;;;774831;177;913425;-72
2024/04/15 02:03:58;;;;;;;9.27;4.97;;;;;;;;;;769836;180;933467;-72
2024/04/15 02:06:23;;;;;;;9.70;6.05;;;;;;;;;;776044;180;819915;-72
2024/04/15 02:08:49;;;;;;;6.53;4.87;;;;;;;;;;772636;180;814893;-72
2024/04/15 02:11:15;;;;;;;9.07;5.27;;;;;;;;;;773169;179;1010349;-71
2024/04/15 02:13:41;;;;;;;8.70;4.87;;;;;;;;;;774789;180;918759;-72
2024/04/15 02:16:07;;;;;;;8.97;5.67;;;;;;;;;;771938;178;1044700;-72
2024/04/15 02:18:32;;;;;;;10.17;6.00;;;;;;;;;;771838;178;910051;-72
2024/04/15 02:20:58;;;;;;;17.43;5.60;;;;;;;;;;774349;180;865817;-73
2024/04/15 02:23:24;;;;;;;10.53;5.93;;;;;;;;;;777715;179;731428;-72
2024/04/15 02:25:50;;;;;;;8.50;6.00;;;;;;;;;;770523;177;916417;-72
2024/04/15 02:28:16;;;;;;;8.87;5.23;;;;;;;;;;774426;181;801555;-72
2024/04/15 02:30:42;;;;;;;6.37;5.30;;;;;;;;;;779166;180;618982;-72
2024/04/15 02:33:07;;;;;;;10.00;5.70;;;;;;;;;;773246;179;903207;-72
2024/04/15 02:35:33;;;;;;;9.13;5.50;;;;;;;;;;774919;180;815979;-72
2024/04/15 02:37:59;;;;;;;8.03;5.17;;;;;;;;;;777481;179;613939;-73
2024/04/15 02:40:25;;;;;;;6.70;5.50;;;;;;;;;;771359;178;697445;-72
2024/04/15 02:42:51;;;;;;;11.32;5.40;;;;;;;;;;773165;181;782652;-73
2024/04/15 02:45:17;;;;;;;10.60;6.23;;;;;;;;;;772147;180;920840;-71
2024/04/15 02:47:42;;;;;;;9.38;5.97;;;;;;;;;;769713;181;716004;-72
2024/04/15 02:50:08;;;;;;;16.70;7.20;;;;;;;;;;773816;179;916938;-72
2024/04/15 02:52:34;;;;;;;11.67;6.57;;;;;;;;;;772389;180;753690;-72
2024/04/15 02:55:00;;;;;;;10.93;6.40;;;;;;;;;;778625;177;817539;-71
2024/04/15 02:57:26;;;;;;;9.20;6.13;;;;;;;;;;773524;179;912985;-72
2024/04/15 02:59:52;;;;;;;9.45;5.68;;;;;;;;;;773866;180;815968;-72
2024/04/15 03:02:17;;;;;;;11.67;6.10;;;;;;;;;;780062;179;892120;-72
2024/04/15 03:04:43;;;;;;;8.20;6.20;;;;;;;;;;774368;180;871603;-72
2024/04/15 03:07:09;;;;;;;8.80;5.33;;;;;;;;;;772585;180;917741;-72
2024/04/15 03:09:35;;;;;;;10.23;5.30;;;;;;;;;;778446;179;912923;-72
2024/04/15 03:12:01;;;;;;;10.37;6.77;;;;;;;;;;775842;180;796554;-73
2024/04/15 03:14:27;;;;;;;12.37;6.10;;;;;;;;;;774385;178;838771;-72
2024/04/15 03:16:53;;;;;;;9.30;6.10;;;;;;;;;;774467;180;632757;-72
2024/04/15 03:19:18;;;;;;;11.80;6.63;;;;;;;;;;773242;178;1254248;-73
2024/04/15 03:21:44;;;;;;;10.30;7.23;;;;;;;;;;772784;178;806761;-72
2024/04/15 03:24:11;;;;;;;9.23;5.65;;;;;;;;;;773372;177;816471;-73
2024/04/15 03:26:36;;;;;;;14.00;7.30;;;;;;;;;;779647;178;734826;-72
2024/04/15 03:29:02;;;;;;;10.50;6.07;;;;;;;;;;773951;180;714431;-72
2024/04/15 03:31:28;;;;;;;14.47;6.10;;;;;;;;;;770857;179;813198;-72
2024/04/15 03:33:53;;;;;;;12.93;7.03;;;;;;;;;;779127;180;818452;-72
2024/04/15 03:36:19;;;;;;;13.00;6.37;;;;;;;;;;773738;177;918049;-72
2024/04/15 03:38:45;;;;;;;13.27;6.43;;;;;;;;;;777086;177;633554;-72
2024/04/15 03:41:11;;;;;;;11.00;7.63;;;;;;;;;;779300;177;707700;-69
2024/04/15 03:43:37;;;;;;;10.40;6.90;;;;;;;;;;775312;179;955239;-67
2024/04/15 03:46:03;;;;;;;17.53;7.53;;;;;;;;;;773033;180;901651;-67
2024/04/15 03:48:29;;;;;;;10.30;6.87;;;;;;;;;;773305;178;776947;-69
2024/04/15 03:50:54;;;;;;;9.17;7.27;;;;;;;;;;772885;179;862054;-68
2024/04/15 03:53:20;;;;;;;10.60;8.03;;;;;;;;;;768834;180;919368;-70
2024/04/15 03:55:51;;;;;;;16.13;6.30;;;;;;;;;;776278;177;905646;-69
2024/04/15 03:58:17;;;;;;;10.60;6.67;;;;;;;;;;771910;180;813544;-70
2024/04/15 04:00:43;;;;;;;12.00;6.10;;;;;;;;;;772050;178;799650;-69
2024/04/15 04:03:08;;;;;;;12.80;6.33;;;;;;;;;;773528;178;713372;-68
2024/04/15 04:05:34;;;;;;;11.30;6.70;;;;;;;;;;777341;177;713334;-69
2024/04/15 04:08:00;;;;;;;11.80;7.60;;;;;;;;;;774353;179;815982;-69
2024/04/15 04:10:26;;;;;;;8.87;5.60;;;;;;;;;;777734;177;624876;-69
2024/04/15 04:12:52;;;;;;;9.47;6.50;;;;;;;;;;757391;183;618968;-69
2024/04/15 04:15:18;;;;;;;10.55;6.97;;;;;;;;;;761496;183;623913;-72
2024/04/15 04:17:44;;;;;;;12.90;6.37;;;;;;;;;;750269;184;630445;-72
2024/04/15 04:20:10;;;;;;;8.20;5.17;;;;;;;;;;778255;178;625501;-73
2024/04/15 04:22:36;;;;;;;12.73;6.18;;;;;;;;;;777850;177;822570;-69
2024/04/15 04:25:02;;;;;;;15.90;7.27;;;;;;;;;;776630;178;633275;-69
2024/04/15 04:27:28;;;;;;;17.30;7.50;;;;;;;;;;757625;183;785764;-67
2024/04/15 04:29:53;;;;;;;13.23;6.20;;;;;;;;;;758372;183;815216;-69
2024/04/15 04:32:19;;;;;;;16.37;5.90;;;;;;;;;;756032;183;866571;-69
2024/04/15 04:34:45;;;;;;;14.27;7.27;;;;;;;;;;773461;178;805168;-69
2024/04/15 04:37:11;;;;;;;14.10;5.57;;;;;;;;;;776658;179;728580;-68
2024/04/15 04:39:37;;;;;;;11.63;6.00;;;;;;;;;;771240;179;713714;-68
2024/04/15 04:42:03;;;;;;;18.40;6.50;;;;;;;;;;776004;179;756967;-69
2024/04/15 04:44:29;;;;;;;11.53;5.87;;;;;;;;;;771803;178;819570;-70
2024/04/15 04:46:54;;;;;;;7.80;5.23;;;;;;;;;;775795;179;828633;-69
2024/04/15 04:49:20;;;;;;;10.50;5.63;;;;;;;;;;773915;178;802270;-69
2024/04/15 04:51:46;;;;;;;15.33;5.63;;;;;;;;;;756905;183;834536;-69
2024/04/15 04:54:12;;;;;;;11.93;5.73;;;;;;;;;;779098;177;838443;-70
2024/04/15 04:56:39;;;;;;;9.80;6.03;;;;;;;;;;770272;178;890805;-68
2024/04/15 04:59:04;;;;;;;10.90;5.73;;;;;;;;;;778568;177;639797;-69
2024/04/15 05:01:30;;;;;;;9.57;5.37;;;;;;;;;;774000;178;913955;-68
2024/04/15 05:03:55;;;;;;;11.33;5.50;;;;;;;;;;764879;178;798807;-68
2024/04/15 05:06:21;;;;;;;12.23;5.70;;;;;;;;;;772094;178;815476;-70
2024/04/15 05:08:47;;;;;;;15.23;6.23;;;;;;;;;;776517;179;759953;-68
2024/04/15 05:11:13;;;;;;;10.80;6.50;;;;;;;;;;752474;183;711919;-69
2024/04/15 05:13:39;;;;;;;19.20;6.47;;;;;;;;;;747177;185;647263;-68
2024/04/15 05:16:06;;;;;;;11.53;5.73;;;;;;;;;;748399;184;817140;-68
2024/04/15 05:18:31;;;;;;;11.27;7.07;;;;;;;;;;759288;182;818534;-68
2024/04/15 05:20:57;;;;;;;11.30;6.70;;;;;;;;;;759660;182;818591;-69
2024/04/15 05:23:23;;;;;;;16.83;6.37;;;;;;;;;;755108;181;1514552;-67
2024/04/15 05:25:49;;;;;;;11.10;7.70;;;;;;;;;;781496;178;708859;-68
2024/04/15 05:28:15;;;;;;;15.20;6.13;;;;;;;;;;774077;178;717688;-69
2024/04/15 05:30:41;;;;;;;9.48;7.57;;;;;;;;;;774912;178;711439;-68
2024/04/15 05:33:06;;;;;;;9.70;7.73;;;;;;;;;;776509;179;834537;-69
2024/04/15 05:35:32;;;;;;;14.40;7.30;;;;;;;;;;757904;183;804857;-70
2024/04/15 05:37:58;;;;;;;15.90;7.27;;;;;;;;;;777053;178;780107;-68
2024/04/15 05:40:24;;;;;;;11.38;7.10;;;;;;;;;;776327;178;813885;-70
2024/04/15 05:42:50;;;;;;;14.93;8.00;;;;;;;;;;770670;180;831696;-68
2024/04/15 05:45:16;;;;;;;14.57;7.63;;;;;;;;;;771152;178;914461;-69
2024/04/15 05:47:42;;;;;;;13.30;6.67;;;;;;;;;;775994;178;744352;-68
2024/04/15 05:50:08;;;;;;;13.03;7.03;;;;;;;;;;774307;179;625298;-68
2024/04/15 05:52:34;;;;;;;10.50;7.20;;;;;;;;;;778606;177;712399;-70
2024/04/15 05:54:59;;;;;;;21.90;7.80;;;;;;;;;;770777;177;848392;-70
2024/04/15 05:57:25;;;;;;;12.10;6.03;;;;;;;;;;773293;179;816435;-70
2024/04/15 05:59:51;;;;;;;12.30;7.22;;;;;;;;;;757544;181;674876;-70
2024/04/15 06:02:17;;;;;;;9.30;6.63;;;;;;;;;;757439;183;766374;-70
2024/04/15 06:04:43;;;;;;;11.47;5.23;;;;;;;;;;760767;184;632438;-70
2024/04/15 06:07:09;;;;;;;11.60;5.90;;;;;;;;;;753821;181;792893;-69
2024/04/15 06:09:36;;;;;;;10.30;6.90;;;;;;;;;;754973;182;916530;-69
2024/04/15 06:12:00;;;;;;;10.90;5.78;;;;;;;;;;755113;183;818761;-70
2024/04/15 06:14:26;;;;;;;11.20;6.40;;;;;;;;;;747254;186;625089;-69
2024/04/15 06:16:52;;;;;;;12.30;6.65;;;;;;;;;;747107;186;635947;-68
2024/04/15 06:19:18;;;;;;;13.43;7.03;;;;;;;;;;743040;186;813398;-70
2024/04/15 06:21:44;;;;;;;13.97;7.17;;;;;;;;;;766154;181;624040;-70
2024/04/15 06:24:10;;;;;;;14.63;7.80;;;;;;;;;;769807;181;648780;-69
2024/04/15 06:26:35;;;;;;;15.30;6.27;;;;;;;;;;773222;180;740334;-68
2024/04/15 06:29:01;;;;;;;12.53;7.30;;;;;;;;;;779553;177;789958;-68
2024/04/15 06:31:27;;;;;;;10.57;7.20;;;;;;;;;;775073;177;780771;-69
2024/04/15 06:33:53;;;;;;;17.62;6.93;;;;;;;;;;778018;179;918063;-69
2024/04/15 06:36:19;;;;;;;15.27;7.13;;;;;;;;;;780733;179;916693;-70
2024/04/15 06:38:46;;;;;;;10.93;6.77;;;;;;;;;;774453;180;738564;-69
2024/04/15 06:41:11;;;;;;;12.00;7.53;;;;;;;;;;773719;179;743063;-69
2024/04/15 06:43:37;;;;;;;13.07;6.90;;;;;;;;;;773865;178;906039;-70
2024/04/15 06:46:03;;;;;;;14.30;6.63;;;;;;;;;;772412;179;803472;-68
2024/04/15 06:48:30;;;;;;;11.75;5.80;;;;;;;;;;774150;178;711066;-69
2024/04/15 06:50:56;;;;;;;15.83;8.63;;;;;;;;;;775442;177;628437;-69
2024/04/15 06:53:21;;;;;;;11.50;7.57;;;;;;;;;;780854;180;809525;-69
2024/04/15 06:55:47;;;;;;;15.00;7.70;;;;;;;;;;776872;180;823893;-68
2024/04/15 06:58:13;;;;;;;10.77;6.53;;;;;;;;;;776607;180;816378;-69
2024/04/15 07:00:39;;;;;;;10.93;6.70;;;;;;;;;;776576;178;717416;-68
2024/04/15 07:03:05;;;;;;;15.33;7.50;;;;;;;;;;773865;177;792052;-68
2024/04/15 07:05:31;;;;;;;18.85;7.25;;;;;;;;;;770714;179;912533;-69
2024/04/15 07:07:56;;;;;;;13.33;7.00;;;;;;;;;;775213;180;1267555;-68
2024/04/15 07:10:22;;;;;;;11.57;6.43;;;;;;;;;;774480;178;816607;-69
2024/04/15 07:12:48;;;;;;;15.90;7.83;;;;;;;;;;776604;180;629354;-70
2024/04/15 07:15:14;;;;;;;9.50;6.57;;;;;;;;;;772649;180;642944;-69
2024/04/15 07:17:40;;;;;;;10.80;7.40;;;;;;;;;;771933;180;631125;-69
2024/04/15 07:20:07;;;;;;;12.87;7.20;;;;;;;;;;768574;178;918613;-68
2024/04/15 07:22:32;;;;;;;12.53;7.00;;;;;;;;;;769644;179;920377;-69
2024/04/15 07:25:02;;;;;;;16.90;7.80;;;;;;;;;;778299;178;716242;-69
2024/04/15 07:27:23;;;;;;;16.50;8.53;;;;;;;;;;752463;183;805754;-69
2024/04/15 07:29:49;;;;;;;12.00;6.80;;;;;;;;;;756249;182;918146;-69
2024/04/15 07:32:15;;;;;;;10.73;7.70;;;;;;;;;;779844;179;707115;-69
2024/04/15 07:34:41;;;;;;;11.40;7.10;;;;;;;;;;774747;178;920783;-69
2024/04/15 07:37:07;;;;;;;11.87;7.50;;;;;;;;;;756543;181;665644;-69
2024/04/15 07:39:33;;;;;;;14.40;8.00;;;;;;;;;;753836;182;708519;-68
2024/04/15 07:41:58;;;;;;;19.90;8.40;;;;;;;;;;754343;184;955305;-68
2024/04/15 07:44:24;;;;;;;13.95;7.85;;;;;;;;;;756017;180;814424;-69
2024/04/15 07:46:50;;;;;;;11.30;7.07;;;;;;;;;;771834;178;753069;-69
2024/04/15 07:49:16;;;;;;;12.00;7.30;;;;;;;;;;779904;178;688565;-68
2024/04/15 07:51:42;;;;;;;13.13;7.00;;;;;;;;;;773434;177;915625;-68
2024/04/15 07:54:08;;;;;;;11.63;7.30;;;;;;;;;;755113;182;918690;-70
2024/04/15 07:56:34;;;;;;;12.90;8.43;;;;;;;;;;760076;180;716692;-68
2024/04/15 07:58:59;;;;;;;14.68;7.82;;;;;;;;;;756154;183;694568;-68
2024/04/15 08:01:25;;;;;;;12.87;7.10;;;;;;;;;;758006;182;797510;-68
2024/04/15 08:03:51;;;;;;;12.40;6.83;;;;;;;;;;759852;183;709081;-68
2024/04/15 08:06:17;;;;;;;12.35;7.82;;;;;;;;;;756161;182;753095;-70
2024/04/15 08:08:43;;;;;;;13.90;7.67;;;;;;;;;;753533;183;816163;-68
2024/04/15 08:11:10;;;;;;;11.87;7.40;;;;;;;;;;760283;180;804975;-70
2024/04/15 08:13:36;;;;;;;12.30;7.90;;;;;;;;;;769899;182;635144;-71
2024/04/15 08:16:02;;;;;;;15.17;8.10;;;;;;;;;;770239;179;840067;-74
2024/04/15 08:18:27;;;;;;;12.87;7.50;;;;;;;;;;774798;178;834876;-71
2024/04/15 08:20:53;;;;;;;10.00;8.33;;;;;;;;;;778691;176;903766;-71
2024/04/15 08:23:19;;;;;;;14.27;8.47;;;;;;;;;;776152;179;639292;-69
2024/04/15 08:25:45;;;;;;;10.80;8.40;;;;;;;;;;754653;183;917781;-70
2024/04/15 08:28:11;;;;;;;16.03;8.93;;;;;;;;;;772593;179;832394;-69
2024/04/15 08:30:37;;;;;;;15.07;10.20;;;;;;;;;;773890;179;909638;-69
2024/04/15 08:33:03;;;;;;;15.48;9.48;;;;;;;;;;777379;179;683780;-69
2024/04/15 08:35:30;;;;;;;14.67;9.30;;;;;;;;;;777883;179;714886;-70
2024/04/15 08:37:54;;;;;;;13.62;8.60;;;;;;;;;;770257;179;770396;-69
2024/04/15 08:40:20;;;;;;;12.57;9.20;;;;;;;;;;755762;183;712776;-69
2024/04/15 08:42:48;;;;;;;12.37;8.90;;;;;;;;;;753649;184;804204;-72
2024/04/15 08:45:14;;;;;;;17.20;9.10;;;;;;;;;;761481;182;716694;-70
2024/04/15 08:47:40;;;;;;;14.27;9.20;;;;;;;;;;770078;179;817097;-71
2024/04/15 08:50:07;;;;;;;12.63;8.20;;;;;;;;;;767643;179;916501;-70
2024/04/15 08:52:31;;;;;;;20.63;11.23;;;;;;;;;;777503;177;865812;-70
2024/04/15 08:54:57;;;;;;;14.43;8.60;;;;;;;;;;776836;179;624150;-68
2024/04/15 08:57:23;;;;;;;18.00;10.23;;;;;;;;;;778918;178;717095;-68
2024/04/15 08:59:49;;;;;;;16.07;10.87;;;;;;;;;;776287;179;820417;-67
2024/04/15 09:02:17;;;;;;;18.57;10.97;;;;;;;;;;776905;178;806280;-67
2024/04/15 09:04:43;;;;;;;18.20;11.27;;;;;;;;;;774514;178;895856;-67
2024/04/15 09:07:09;;;;;;;19.77;12.50;;;;;;;;;;775870;177;737374;-69
2024/04/15 09:09:35;;;;;;;16.40;10.50;;;;;;;;;;773756;180;814682;-68
2024/04/15 09:12:01;;;;;;;16.10;10.60;;;;;;;;;;770530;177;816102;-69
2024/04/15 09:14:27;;;;;;;16.70;10.70;;;;;;;;;;774019;179;814959;-68
2024/04/15 09:16:52;;;;;;;15.20;9.63;;;;;;;;;;780494;179;746174;-68
2024/04/15 09:19:18;;;;;;;12.97;10.30;;;;;;;;;;755878;183;817920;-68
2024/04/15 09:21:44;;;;;;;15.30;11.25;;;;;;;;;;758714;183;871585;-68
2024/04/15 09:24:10;;;;;;;17.47;11.30;;;;;;;;;;777901;178;699981;-68
2024/04/15 09:26:36;;;;;;;12.53;9.30;;;;;;;;;;776818;179;914318;-68
2024/04/15 09:29:02;;;;;;;22.77;9.87;;;;;;;;;;775806;178;660984;-67
2024/04/15 09:31:28;;;;;;;14.43;9.33;;;;;;;;;;776450;179;709720;-66
2024/04/15 09:33:53;;;;;;;16.27;9.73;;;;;;;;;;773902;178;791410;-66
2024/04/15 09:36:19;;;;;;;13.87;10.77;;;;;;;;;;770657;177;916706;-67
2024/04/15 09:38:45;;;;;;;19.80;11.60;;;;;;;;;;771044;179;809016;-67
2024/04/15 09:41:11;;;;;;;15.10;11.30;;;;;;;;;;761166;181;716437;-67
2024/04/15 09:43:37;;;;;;;15.63;11.47;;;;;;;;;;756756;182;775342;-68
2024/04/15 09:46:03;;;;;;;20.47;10.40;;;;;;;;;;750096;184;919650;-67
2024/04/15 09:48:29;;;;;;;14.57;10.60;;;;;;;;;;754671;185;835356;-67
2024/04/15 09:50:54;;;;;;;16.43;10.93;;;;;;;;;;754198;183;812468;-67
2024/04/15 09:53:30;;;;;;;16.00;10.93;;;;;;;;;;773393;179;655235;-68
2024/04/15 09:55:56;;;;;;;17.53;11.97;;;;;;;;;;773871;179;715480;-75
2024/04/15 09:58:21;;;;;;;18.77;12.53;;;;;;;;;;778531;179;828168;-74
2024/04/15 10:00:47;;;;;;;18.53;11.83;;;;;;;;;;775016;177;711425;-74
2024/04/15 10:03:14;;;;;;;15.70;11.30;;;;;;;;;;771760;179;818831;-74
2024/04/15 10:05:40;;;;;;;16.80;11.43;;;;;;;;;;774631;179;624959;-74
2024/04/15 10:08:06;;;;;;;11.30;8.43;;;;;;;;;;772557;178;910529;-74
2024/04/15 10:10:32;;;;;;;19.33;9.70;;;;;;;;;;768552;178;922577;-74
2024/04/15 10:12:59;;;;;;;10.63;8.87;;;;;;;;;;781822;178;629094;-74
2024/04/15 10:15:25;;;;;;;15.13;7.97;;;;;;;;;;779260;178;623806;-74
2024/04/15 10:17:57;;;;;;;9.93;7.70;;;;;;;;;;775377;178;766021;-76
2024/04/15 10:20:31;;;;;;;11.30;7.23;;;;;;;;;;756133;183;814845;-75
2024/04/15 10:22:57;;;;;;;10.43;7.43;;;;;;;;;;759177;183;931986;-74
2024/04/15 10:25:23;;;;;;;9.20;7.40;;;;;;;;;;754126;182;918186;-74
2024/04/15 10:27:49;;;;;;;9.53;7.20;;;;;;;;;;758692;182;683267;-74
2024/04/15 10:30:17;;;;;;;11.53;7.67;;;;;;;;;;748260;185;714258;-75
2024/04/15 10:32:45;;;;;;;8.60;6.53;;;;;;;;;;749931;184;816237;-73
2024/04/15 10:35:09;;;;;;;9.20;7.70;;;;;;;;;;751246;183;816040;-66
2024/04/15 10:37:35;;;;;;;8.93;6.97;;;;;;;;;;752437;181;749430;-68
2024/04/15 10:40:01;;;;;;;9.07;7.30;;;;;;;;;;753499;183;744210;-67
2024/04/15 10:42:27;;;;;;;7.73;6.67;;;;;;;;;;771378;178;901715;-66
2024/04/15 10:44:52;;;;;;;10.35;7.22;;;;;;;;;;770344;179;925022;-66
2024/04/15 10:47:18;;;;;;;8.50;7.00;;;;;;;;;;778404;177;920056;-66
2024/04/15 10:49:44;;;;;;;8.93;7.00;;;;;;;;;;774110;177;814430;-66
2024/04/15 10:52:10;;;;;;;7.28;5.97;;;;;;;;;;757835;181;831192;-72
2024/04/15 10:54:37;;;;;;;8.40;7.30;;;;;;;;;;758128;180;622356;-72
2024/04/15 10:57:03;;;;;;;8.00;7.20;;;;;;;;;;752941;185;919118;-71
2024/04/15 10:59:29;;;;;;;8.87;6.63;;;;;;;;;;754036;183;819906;-72
2024/04/15 11:01:55;;;;;;;8.30;6.93;;;;;;;;;;742913;184;914638;-72
2024/04/15 11:04:21;;;;;;;8.43;7.27;;;;;;;;;;775699;178;694436;-74
2024/04/15 11:06:46;;;;;;;8.48;7.50;;;;;;;;;;774314;177;770900;-72
2024/04/15 11:09:12;;;;;;;8.35;5.15;;;;;;;;;;752869;183;918413;-72
2024/04/15 11:11:39;;;;;;;7.83;7.03;;;;;;;;;;759190;184;820104;-72
2024/04/15 11:14:04;;;;;;;9.67;7.70;;;;;;;;;;755586;183;810900;-72
2024/04/15 11:16:30;;;;;;;11.90;8.50;;;;;;;;;;753302;184;812290;-73
2024/04/15 11:19:10;;;;;;;11.53;9.37;;;;;;;;;;762609;182;819339;-72
2024/04/15 11:21:38;;;;;;;11.97;9.23;;;;;;;;;;776190;180;919444;-74
2024/04/15 11:24:02;;;;;;;11.37;9.17;;;;;;;;;;774539;178;786762;-71
2024/04/15 11:26:33;;;;;;;10.73;8.23;;;;;;;;;;775351;179;818363;-72
2024/04/15 11:28:55;;;;;;;10.33;8.23;;;;;;;;;;775729;179;813824;-72
2024/04/15 11:31:20;;;;;;;11.60;9.07;;;;;;;;;;773059;178;919613;-72
2024/04/15 11:33:46;;;;;;;8.37;5.80;;;;;;;;;;772215;178;936631;-72
2024/04/15 11:36:13;;;;;;;18.33;8.97;;;;;;;;;;772377;178;922194;-71
2024/04/15 11:38:39;;;;;;;11.97;9.10;;;;;;;;;;778702;179;678747;-72
2024/04/15 11:41:05;;;;;;;9.73;8.53;;;;;;;;;;756042;183;821681;-66
2024/04/15 11:43:30;;;;;;;15.80;8.88;;;;;;;;;;751069;181;918309;-67
2024/04/15 11:45:56;;;;;;;12.23;10.03;;;;;;;;;;759224;184;812972;-66
2024/04/15 11:48:22;;;;;;;11.70;9.23;;;;;;;;;;737573;185;815430;-68
2024/04/15 11:50:48;;;;;;;18.83;9.73;;;;;;;;;;747439;184;712454;-66
2024/04/15 11:53:14;;;;;;;11.60;10.43;;;;;;;;;;741351;187;914845;-66
2024/04/15 11:55:40;;;;;;;14.50;8.07;;;;;;;;;;774795;179;659819;-66
2024/04/15 11:58:05;;;;;;;11.05;9.70;;;;;;;;;;764740;179;1427114;-66
2024/04/15 12:00:31;;;;;;;14.70;10.10;;;;;;;;;;774361;178;889256;-65
2024/04/15 12:02:57;;;;;;;17.87;10.10;;;;;;;;;;774297;179;814650;-65
2024/04/15 12:05:25;;;;;;;13.80;10.60;;;;;;;;;;756956;183;844612;-66
2024/04/15 12:07:49;;;;;;;15.05;11.02;;;;;;;;;;768857;178;917159;-65
2024/04/15 12:10:15;;;;;;;14.00;10.77;;;;;;;;;;776518;179;812650;-66
2024/04/15 12:12:41;;;;;;;13.10;9.93;;;;;;;;;;773570;179;904931;-65
2024/04/15 12:15:09;;;;;;;11.10;9.10;;;;;;;;;;770608;179;921216;-66
2024/04/15 12:17:32;;;;;;;22.20;11.33;;;;;;;;;;775250;179;713621;-66
2024/04/15 12:19:59;;;;;;;13.97;11.07;;;;;;;;;;771439;177;808254;-67
2024/04/15 12:22:24;;;;;;;12.23;10.73;;;;;;;;;;768746;179;923343;-65
2024/04/15 12:24:50;;;;;;;13.03;10.73;;;;;;;;;;776657;179;922999;-65
2024/04/15 12:27:16;;;;;;;11.87;9.80;;;;;;;;;;754570;183;918329;-67
2024/04/15 12:29:42;;;;;;;12.63;9.87;;;;;;;;;;776208;179;709904;-66
2024/04/15 12:32:08;;;;;;;14.07;10.40;;;;;;;;;;779760;178;916062;-66
2024/04/15 12:34:35;;;;;;;13.13;11.53;;;;;;;;;;774045;178;827690;-66
2024/04/15 12:36:59;;;;;;;14.53;13.03;;;;;;;;;;773490;179;917689;-66
2024/04/15 12:39:25;;;;;;;13.30;12.00;;;;;;;;;;775550;178;812312;-65
2024/04/15 12:41:51;;;;;;;13.37;11.13;;;;;;;;;;773600;178;817359;-65
2024/04/15 12:44:17;;;;;;;20.17;11.43;;;;;;;;;;770407;178;920385;-66
2024/04/15 12:46:43;;;;;;;15.83;12.67;;;;;;;;;;773958;177;917319;-66
2024/04/15 12:49:08;;;;;;;22.87;15.93;;;;;;;;;;777722;179;793350;-65
2024/04/15 12:51:34;;;;;;;21.43;15.37;;;;;;;;;;757442;181;891055;-66
2024/04/15 12:54:00;;;;;;;16.67;14.13;;;;;;;;;;739703;187;918821;-67
2024/04/15 12:56:26;;;;;;;15.83;13.53;;;;;;;;;;757492;183;918149;-67
2024/04/15 12:58:52;;;;;;;16.73;14.60;;;;;;;;;;751634;183;852558;-67
2024/04/15 13:01:18;;;;;;;15.87;13.30;;;;;;;;;;756230;183;900026;-67
2024/04/15 13:03:43;;;;;;;18.03;14.07;;;;;;;;;;744915;186;630230;-69
2024/04/15 13:06:09;;;;;;;20.03;15.83;;;;;;;;;;748956;184;709782;-67
2024/04/15 13:08:35;;;;;;;19.23;16.52;;;;;;;;;;736576;188;917191;-68
2024/04/15 13:11:01;;;;;;;20.23;18.00;;;;;;;;;;772381;179;816192;-68
2024/04/15 13:13:27;;;;;;;27.33;17.37;;;;;;;;;;777648;178;799534;-67
2024/04/15 13:15:53;;;;;;;25.03;19.20;;;;;;;;;;759731;182;715496;-67
2024/04/15 13:18:19;;;;;;;21.90;18.00;;;;;;;;;;770599;179;919033;-68
2024/04/15 13:20:44;;;;;;;26.43;18.27;;;;;;;;;;778686;179;618578;-67
2024/04/15 13:23:10;;;;;;;26.43;17.63;;;;;;;;;;774972;179;815557;-67
2024/04/15 13:25:36;;;;;;;22.50;16.13;;;;;;;;;;774567;178;791890;-68
2024/04/15 13:28:02;;;;;;;25.50;19.80;;;;;;;;;;777183;178;751013;-68
2024/04/15 13:30:28;;;;;;;15.57;11.70;;;;;;;;;;773078;178;820543;-67
2024/04/15 13:32:54;;;;;;;26.40;19.42;;;;;;;;;;771716;179;914552;-68
2024/04/15 13:35:20;;;;;;;25.80;18.10;;;;;;;;;;776217;178;710798;-68
2024/04/15 13:37:45;;;;;;;31.03;20.60;;;;;;;;;;776926;177;615140;-68
2024/04/15 13:40:11;;;;;;;60.20;36.73;;;;;;;;;;772952;178;829010;-69
2024/04/15 13:42:37;;;;;;;37.10;25.83;;;;;;;;;;758286;182;881116;-70
2024/04/15 13:45:03;;;;;;;26.40;19.10;;;;;;;;;;780597;178;817717;-68
2024/04/15 13:47:29;;;;;;;27.13;20.20;;;;;;;;;;774960;178;717652;-68
2024/04/15 13:49:55;;;;;;;25.10;18.37;;;;;;;;;;773909;178;916696;-69
2024/04/15 13:52:21;;;;;;;32.17;21.97;;;;;;;;;;778790;179;782008;-69
2024/04/15 13:54:47;;;;;;;27.20;24.17;;;;;;;;;;770284;177;888478;-69
2024/04/15 13:57:13;;;;;;;32.20;21.60;;;;;;;;;;775960;178;712771;-69
2024/04/15 13:59:40;;;;;;;34.83;26.00;;;;;;;;;;776063;179;716046;-73
2024/04/15 14:02:06;;;;;;;32.17;22.90;;;;;;;;;;757343;183;817308;-73
2024/04/15 14:04:32;;;;;;;32.73;22.60;;;;;;;;;;774842;177;834153;-74
2024/04/15 14:06:58;;;;;;;44.90;29.50;;;;;;;;;;753365;183;805000;-73
2024/04/15 14:09:24;;;;;;;43.37;28.07;;;;;;;;;;744583;188;791902;-73